createdAt,value
2018-08-30T00:02:05.853Z,97.00
2018-08-30T00:04:34.218Z,96.80
2018-08-30T00:07:02.685Z,96.50
2018-08-30T00:09:31.212Z,96.30
2018-08-30T00:11:59.620Z,96.50
2018-08-30T00:14:27.961Z,96.30
2018-08-30T00:16:56.311Z,96.50
2018-08-30T00:19:24.833Z,96.30
2018-08-30T00:21:53.498Z,96.60
2018-08-30T00:24:21.927Z,96.60
2018-08-30T00:26:50.324Z,96.70
2018-08-30T00:29:18.714Z,96.70
2018-08-30T00:31:47.057Z,96.80
2018-08-30T00:34:15.404Z,96.60
2018-08-30T00:36:43.779Z,96.60
2018-08-30T00:39:12.284Z,96.60
2018-08-30T00:41:40.665Z,96.70
2018-08-30T00:44:09.018Z,96.70
2018-08-30T00:46:37.352Z,96.80
2018-08-30T00:49:05.964Z,96.80
2018-08-30T00:51:34.354Z,96.80
2018-08-30T00:54:02.866Z,96.90
2018-08-30T00:56:32.293Z,96.80
2018-08-30T00:59:00.890Z,96.70
2018-08-30T01:01:29.254Z,96.80
2018-08-30T01:03:58.728Z,96.60
2018-08-30T01:06:27.166Z,97.20
2018-08-30T01:08:56.779Z,96.40
2018-08-30T01:11:26.274Z,96.60
2018-08-30T01:13:56.812Z,96.60
2018-08-30T01:16:26.109Z,96.30
2018-08-30T01:18:54.541Z,96.30
2018-08-30T01:21:23.046Z,96.30
2018-08-30T01:23:53.285Z,96.20
2018-08-30T01:26:21.842Z,96.40
2018-08-30T01:28:50.455Z,96.50
2018-08-30T01:31:19.044Z,96.50
2018-08-30T01:33:47.423Z,96.40
2018-08-30T01:36:15.874Z,96.60
2018-08-30T01:38:44.489Z,96.60
2018-08-30T01:41:13.009Z,96.50
2018-08-30T01:43:41.833Z,96.80
2018-08-30T01:46:10.207Z,96.70
2018-08-30T01:48:38.621Z,97.20
2018-08-30T01:51:07.099Z,96.90
2018-08-30T01:53:36.469Z,96.80
2018-08-30T01:56:04.853Z,97.30
2018-08-30T01:58:33.409Z,96.90
2018-08-30T02:01:01.982Z,97.10
2018-08-30T02:03:30.426Z,97.20
2018-08-30T02:05:58.834Z,97.00
2018-08-30T02:08:27.240Z,97.10
2018-08-30T02:10:55.620Z,96.80
2018-08-30T02:13:24.046Z,96.80
2018-08-30T02:15:52.528Z,96.60
2018-08-30T02:18:20.868Z,96.80
2018-08-30T02:20:49.236Z,96.90
2018-08-30T02:23:17.654Z,96.70
2018-08-30T02:25:46.009Z,96.90
2018-08-30T02:28:14.325Z,96.70
2018-08-30T02:30:42.689Z,96.70
2018-08-30T02:33:11.073Z,96.80
2018-08-30T02:35:39.594Z,96.60
2018-08-30T02:38:08.069Z,96.70
2018-08-30T02:40:37.509Z,96.50
2018-08-30T02:43:05.990Z,96.90
2018-08-30T02:45:34.656Z,96.40
2018-08-30T02:48:03.052Z,96.30
2018-08-30T02:50:31.665Z,96.10
2018-08-30T02:53:00.085Z,96.30
2018-08-30T02:55:29.006Z,95.90
2018-08-30T02:57:57.558Z,96.10
2018-08-30T03:00:26.048Z,95.80
2018-08-30T03:02:54.437Z,95.90
2018-08-30T03:05:22.862Z,95.40
2018-08-30T03:07:51.763Z,95.30
2018-08-30T03:10:20.215Z,95.00
2018-08-30T03:12:48.545Z,94.40
2018-08-30T03:15:16.855Z,94.60
2018-08-30T03:17:45.422Z,94.40
2018-08-30T03:20:15.349Z,94.40
2018-08-30T03:22:43.724Z,93.70
2018-08-30T03:25:12.809Z,94.20
2018-08-30T03:27:41.212Z,93.70
2018-08-30T03:30:09.761Z,93.90
2018-08-30T03:32:38.030Z,94.00
2018-08-30T03:35:06.384Z,93.90
2018-08-30T03:37:34.924Z,93.90
2018-08-30T03:40:03.337Z,93.90
2018-08-30T03:42:32.026Z,93.70
2018-08-30T03:45:00.400Z,94.00
2018-08-30T03:47:28.729Z,94.40
2018-08-30T03:49:57.952Z,94.20
2018-08-30T03:52:26.277Z,94.40
2018-08-30T03:54:54.678Z,93.70
2018-08-30T03:57:23.078Z,93.90
2018-08-30T03:59:51.687Z,94.10
2018-08-30T04:02:20.106Z,94.40
2018-08-30T04:04:48.453Z,94.00
2018-08-30T04:07:16.927Z,94.20
2018-08-30T04:09:45.253Z,94.00
2018-08-30T04:12:13.701Z,94.20
2018-08-30T04:14:42.033Z,93.60
2018-08-30T04:17:10.510Z,93.90
2018-08-30T04:19:38.947Z,93.60
2018-08-30T04:22:07.351Z,93.60
2018-08-30T04:24:35.717Z,93.90
2018-08-30T04:27:04.208Z,93.70
2018-08-30T04:29:32.645Z,93.50
2018-08-30T04:32:01.009Z,93.60
2018-08-30T04:34:29.528Z,93.50
2018-08-30T04:36:57.956Z,93.80
2018-08-30T04:39:26.419Z,93.70
2018-08-30T04:41:54.768Z,94.00
2018-08-30T04:44:23.378Z,93.40
2018-08-30T04:46:51.873Z,93.60
2018-08-30T04:49:20.290Z,93.70
2018-08-30T04:51:48.636Z,93.70
2018-08-30T04:54:16.968Z,93.90
2018-08-30T04:56:45.608Z,93.50
2018-08-30T04:59:13.940Z,93.10
2018-08-30T05:01:42.546Z,93.30
2018-08-30T05:04:10.946Z,93.20
2018-08-30T05:06:39.386Z,93.20
2018-08-30T05:09:09.456Z,93.60
2018-08-30T05:11:38.042Z,92.80
2018-08-30T05:14:07.312Z,93.00
2018-08-30T05:16:35.945Z,92.80
2018-08-30T05:19:04.454Z,93.10
2018-08-30T05:21:33.369Z,92.70
2018-08-30T05:24:01.749Z,92.20
2018-08-30T05:26:30.066Z,92.60
2018-08-30T05:28:58.442Z,92.40
2018-08-30T05:31:27.028Z,92.60
2018-08-30T05:33:57.873Z,92.80
2018-08-30T05:36:26.615Z,92.50
2018-08-30T05:38:55.032Z,92.50
2018-08-30T05:41:23.493Z,92.20
2018-08-30T05:43:52.273Z,91.80
2018-08-30T05:46:21.032Z,92.10
2018-08-30T05:48:50.065Z,92.20
2018-08-30T05:51:18.816Z,92.70
2018-08-30T05:53:47.730Z,91.90
2018-08-30T05:56:16.425Z,91.40
2018-08-30T05:58:44.981Z,91.50
2018-08-30T06:01:13.401Z,91.50
2018-08-30T06:03:41.882Z,91.20
2018-08-30T06:06:10.322Z,92.10
2018-08-30T06:08:39.686Z,91.20
2018-08-30T06:11:08.021Z,91.10
2018-08-30T06:13:36.998Z,90.90
2018-08-30T06:16:05.494Z,90.80
2018-08-30T06:18:33.908Z,90.40
2018-08-30T06:21:02.436Z,90.20
2018-08-30T06:23:30.848Z,90.20
2018-08-30T06:26:00.369Z,90.10
2018-08-30T06:28:28.768Z,89.40
2018-08-30T06:30:57.081Z,87.20
2018-08-30T06:33:25.431Z,87.30
2018-08-30T06:35:53.841Z,88.00
2018-08-30T06:38:22.237Z,86.70
2018-08-30T06:40:50.557Z,87.90
2018-08-30T06:43:19.392Z,89.80
2018-08-30T06:45:47.752Z,87.30
2018-08-30T06:48:16.103Z,87.20
2018-08-30T06:50:44.956Z,87.20
2018-08-30T06:53:13.373Z,86.50
2018-08-30T06:55:41.819Z,86.70
2018-08-30T06:58:10.180Z,86.00
2018-08-30T07:00:38.628Z,86.50
2018-08-30T07:03:07.347Z,86.10
2018-08-30T07:05:35.912Z,87.70
2018-08-30T07:08:04.447Z,86.90
2018-08-30T07:10:32.841Z,86.50
2018-08-30T07:13:01.155Z,87.00
2018-08-30T07:15:29.789Z,87.30
2018-08-30T07:17:58.336Z,87.30
2018-08-30T07:20:26.710Z,87.80
2018-08-30T07:22:55.241Z,86.50
2018-08-30T07:25:23.713Z,86.40
2018-08-30T07:27:52.196Z,85.00
2018-08-30T07:30:20.540Z,85.40
2018-08-30T07:32:48.895Z,84.50
2018-08-30T07:35:17.530Z,85.70
2018-08-30T07:37:45.964Z,85.60
2018-08-30T07:40:15.081Z,85.70
2018-08-30T07:42:57.079Z,87.10
2018-08-30T07:45:25.428Z,87.10
2018-08-30T07:47:53.774Z,88.10
2018-08-30T07:50:22.157Z,86.40
2018-08-30T07:52:50.754Z,87.20
2018-08-30T07:55:19.457Z,86.10
2018-08-30T07:57:48.044Z,85.40
2018-08-30T08:00:17.587Z,85.60
2018-08-30T08:02:46.846Z,84.30
2018-08-30T08:05:15.940Z,84.30
2018-08-30T08:07:44.824Z,84.40
2018-08-30T08:10:13.252Z,84.60
2018-08-30T08:12:41.806Z,83.70
2018-08-30T08:15:14.551Z,82.00
2018-08-30T08:17:43.004Z,82.00
2018-08-30T08:20:11.446Z,83.30
2018-08-30T08:22:39.784Z,82.30
2018-08-30T08:25:08.288Z,82.80
2018-08-30T08:27:36.882Z,83.10
2018-08-30T08:30:07.537Z,82.60
2018-08-30T08:32:35.912Z,82.10
2018-08-30T08:35:04.505Z,82.30
2018-08-30T08:37:32.911Z,83.80
2018-08-30T08:40:01.451Z,82.90
2018-08-30T08:42:29.798Z,83.00
2018-08-30T08:44:58.201Z,83.00
2018-08-30T08:47:26.824Z,82.70
2018-08-30T08:49:55.377Z,82.50
2018-08-30T08:52:24.066Z,82.70
2018-08-30T08:54:52.510Z,83.00
2018-08-30T08:57:20.953Z,82.40
2018-08-30T08:59:49.469Z,83.60
2018-08-30T09:02:18.160Z,82.40
2018-08-30T09:04:46.635Z,81.80
2018-08-30T09:07:15.354Z,83.00
2018-08-30T09:09:43.788Z,82.70
2018-08-30T09:12:12.309Z,81.30
2018-08-30T09:14:41.064Z,82.50
2018-08-30T09:17:09.634Z,81.90
2018-08-30T09:19:38.201Z,81.20
2018-08-30T09:22:06.748Z,83.00
2018-08-30T09:24:35.836Z,82.20
2018-08-30T09:27:05.055Z,81.60
2018-08-30T09:29:34.317Z,81.30
2018-08-30T09:32:02.766Z,81.80
2018-08-30T09:34:31.511Z,82.00
2018-08-30T09:36:59.846Z,82.00
2018-08-30T09:39:28.202Z,79.40
2018-08-30T09:41:56.552Z,79.20
2018-08-30T09:44:25.747Z,79.90
2018-08-30T09:46:54.550Z,78.60
2018-08-30T09:49:23.336Z,79.70
2018-08-30T09:51:53.132Z,79.70
2018-08-30T09:54:21.939Z,78.20
2018-08-30T09:56:53.314Z,79.50
2018-08-30T09:59:21.913Z,80.20
2018-08-30T10:01:54.662Z,80.40
2018-08-30T10:04:23.462Z,79.70
2018-08-30T10:06:51.985Z,79.30
2018-08-30T10:09:21.417Z,77.20
2018-08-30T10:11:50.193Z,77.70
2018-08-30T10:14:21.078Z,77.80
2018-08-30T10:16:50.186Z,79.50
2018-08-30T10:21:58.756Z,76.90
2018-08-30T10:24:28.076Z,77.20
2018-08-30T10:26:57.159Z,78.60
2018-08-30T10:29:26.669Z,78.50
2018-08-30T10:31:56.077Z,78.80
2018-08-30T10:34:24.704Z,77.20
2018-08-30T10:36:53.328Z,77.20
2018-08-30T10:39:21.816Z,75.90
2018-08-30T10:41:50.747Z,77.10
2018-08-30T10:44:20.387Z,76.90
2018-08-30T10:46:49.795Z,77.30
2018-08-30T10:49:18.832Z,78.60
2018-08-30T10:51:47.729Z,76.90
2018-08-30T10:54:17.592Z,78.30
2018-08-30T10:56:48.291Z,78.90
2018-08-30T10:59:18.734Z,78.80
2018-08-30T11:01:48.995Z,76.40
2018-08-30T11:04:18.424Z,76.60
2018-08-30T11:06:47.108Z,77.30
2018-08-30T11:09:16.482Z,77.30
2018-08-30T11:11:45.145Z,77.20
2018-08-30T11:14:13.762Z,77.20
2018-08-30T11:16:42.471Z,77.70
2018-08-30T11:19:11.110Z,77.50
2018-08-30T11:21:42.113Z,76.90
2018-08-30T11:24:10.657Z,77.70
2018-08-30T11:26:39.213Z,77.60
2018-08-30T11:29:07.920Z,75.90
2018-08-30T11:31:36.576Z,75.70
2018-08-30T11:34:05.591Z,73.80
2018-08-30T11:36:34.303Z,72.90
2018-08-30T11:39:03.055Z,73.50
2018-08-30T11:41:31.726Z,74.40
2018-08-30T11:43:59.987Z,74.10
2018-08-30T11:46:28.345Z,74.00
2018-08-30T11:48:57.068Z,72.70
2018-08-30T11:51:25.913Z,73.90
2018-08-30T11:53:54.502Z,73.60
2018-08-30T11:56:22.950Z,73.40
2018-08-30T11:58:51.577Z,73.60
2018-08-30T12:01:20.034Z,72.50
2018-08-30T12:03:48.820Z,72.20
2018-08-30T12:06:18.223Z,74.00
2018-08-30T12:08:46.782Z,71.50
2018-08-30T12:11:15.816Z,72.70
2018-08-30T12:13:44.354Z,72.60
2018-08-30T12:16:13.223Z,72.50
2018-08-30T12:18:41.745Z,72.60
2018-08-30T12:21:10.166Z,73.80
2018-08-30T12:23:38.822Z,72.60
2018-08-30T12:26:07.214Z,73.90
2018-08-30T12:28:36.765Z,74.10
2018-08-30T12:31:05.217Z,72.60
2018-08-30T12:33:33.727Z,73.30
2018-08-30T12:36:02.420Z,73.60
2018-08-30T12:38:30.873Z,74.00
2018-08-30T12:40:59.353Z,72.60
2018-08-30T12:43:28.290Z,71.90
2018-08-30T12:45:56.840Z,72.10
2018-08-30T12:48:25.432Z,72.30
2018-08-30T12:50:54.080Z,71.60
2018-08-30T12:53:23.165Z,72.20
2018-08-30T12:55:52.804Z,71.70
2018-08-30T12:58:21.606Z,71.10
2018-08-30T13:00:50.383Z,70.30
2018-08-30T13:03:18.896Z,69.00
2018-08-30T13:05:48.475Z,70.00
2018-08-30T13:08:17.809Z,72.30
2018-08-30T13:10:46.536Z,73.00
2018-08-30T13:13:14.883Z,74.00
2018-08-30T13:15:44.015Z,70.60
2018-08-30T13:18:13.493Z,72.40
2018-08-30T13:20:42.487Z,73.30
2018-08-30T13:23:11.690Z,74.30
2018-08-30T13:25:40.561Z,72.30
2018-08-30T13:28:09.216Z,70.50
2018-08-30T13:30:37.693Z,71.40
2018-08-30T13:33:06.881Z,72.20
2018-08-30T13:35:35.400Z,72.50
2018-08-30T13:38:04.505Z,73.10
2018-08-30T13:40:33.374Z,72.10
2018-08-30T13:43:01.954Z,72.70
2018-08-30T13:45:30.141Z,71.30
2018-08-30T13:48:00.888Z,70.60
2018-08-30T13:50:29.726Z,70.20
2018-08-30T13:52:58.287Z,70.00
2018-08-30T13:55:27.165Z,69.30
2018-08-30T13:57:55.403Z,69.80
2018-08-30T14:00:24.287Z,68.90
2018-08-30T14:02:52.579Z,70.90
2018-08-30T14:05:21.430Z,71.10
2018-08-30T14:07:52.553Z,70.90
2018-08-30T14:10:21.546Z,69.20
2018-08-30T14:12:51.096Z,68.40
2018-08-30T14:15:19.804Z,68.80
2018-08-30T14:17:47.794Z,69.20
2018-08-30T14:20:18.265Z,69.50
2018-08-30T14:22:47.188Z,68.40
2018-08-30T14:25:16.574Z,68.90
2018-08-30T14:27:45.158Z,69.30
2018-08-30T14:30:14.935Z,69.20
2018-08-30T14:32:50.007Z,70.10
2018-08-30T14:35:18.830Z,69.70
2018-08-30T14:37:47.416Z,68.60
2018-08-30T14:40:16.504Z,69.20
2018-08-30T14:42:45.236Z,70.90
2018-08-30T14:45:14.174Z,69.90
2018-08-30T14:47:43.245Z,69.70
2018-08-30T14:50:11.600Z,70.00
2018-08-30T14:52:40.354Z,69.00
2018-08-30T14:55:09.040Z,69.50
2018-08-30T14:57:37.561Z,69.00
2018-08-30T15:00:06.190Z,69.50
2018-08-30T15:02:34.506Z,69.50
2018-08-30T15:05:02.892Z,69.50
2018-08-30T15:07:31.497Z,69.90
2018-08-30T15:09:59.805Z,70.00
2018-08-30T15:12:31.212Z,68.60
2018-08-30T15:15:00.226Z,68.40
2018-08-30T15:17:28.917Z,68.70
2018-08-30T15:19:57.431Z,67.50
2018-08-30T15:22:25.997Z,68.20
2018-08-30T15:24:54.598Z,68.70
2018-08-30T15:27:23.028Z,68.40
2018-08-30T15:29:51.603Z,68.60
2018-08-30T15:32:20.547Z,67.50
2018-08-30T15:34:49.119Z,68.00
2018-08-30T15:37:18.364Z,68.60
2018-08-30T15:39:47.546Z,68.80
2018-08-30T15:42:30.673Z,68.70
2018-08-30T15:44:59.200Z,70.10
2018-08-30T15:47:27.997Z,67.70
2018-08-30T15:49:56.610Z,69.30
2018-08-30T15:52:25.034Z,69.60
2018-08-30T15:54:54.659Z,69.80
2018-08-30T15:57:23.285Z,70.10
2018-08-30T15:59:51.779Z,70.70
2018-08-30T16:02:20.391Z,69.90
2018-08-30T16:04:48.953Z,69.60
2018-08-30T16:07:18.121Z,68.80
2018-08-30T16:09:46.804Z,67.40
2018-08-30T16:12:15.731Z,68.30
2018-08-30T16:14:44.457Z,68.60
2018-08-30T16:17:13.840Z,68.20
2018-08-30T16:19:43.022Z,68.40
2018-08-30T16:22:12.364Z,68.60
2018-08-30T16:24:40.834Z,69.30
2018-08-30T16:27:09.397Z,70.10
2018-08-30T16:29:38.228Z,69.60
2018-08-30T16:32:06.925Z,69.30
2018-08-30T16:34:35.477Z,70.10
2018-08-30T16:37:04.132Z,70.60
2018-08-30T16:39:32.572Z,70.20
2018-08-30T16:42:01.318Z,70.20
2018-08-30T16:44:29.725Z,71.10
2018-08-30T16:46:58.641Z,71.20
2018-08-30T16:49:27.117Z,72.00
2018-08-30T16:51:55.543Z,70.60
2018-08-30T16:54:24.109Z,71.50
2018-08-30T16:56:52.977Z,70.90
2018-08-30T16:59:21.760Z,69.80
2018-08-30T17:01:50.394Z,70.60
2018-08-30T17:04:18.867Z,70.90
2018-08-30T17:06:48.071Z,71.60
2018-08-30T17:09:16.681Z,71.30
2018-08-30T17:11:45.184Z,72.10
2018-08-30T17:14:13.752Z,72.80
2018-08-30T17:16:42.299Z,73.70
2018-08-30T17:19:20.766Z,73.20
2018-08-30T17:24:36.082Z,74.00
2018-08-30T17:27:04.859Z,74.10
2018-08-30T17:29:33.353Z,74.50
2018-08-30T17:32:02.270Z,74.20
2018-08-30T17:34:30.606Z,74.30
2018-08-30T17:36:59.157Z,74.40
2018-08-30T17:39:27.991Z,74.30
2018-08-30T17:41:56.438Z,74.70
2018-08-30T17:44:25.582Z,75.10
2018-08-30T17:46:55.970Z,74.70
2018-08-30T17:49:24.660Z,75.70
2018-08-30T17:51:53.537Z,75.30
2018-08-30T17:54:22.051Z,75.20
2018-08-30T17:56:50.557Z,75.90
2018-08-30T17:59:20.260Z,76.00
2018-08-30T18:01:48.744Z,76.20
2018-08-30T18:04:18.258Z,76.30
2018-08-30T18:06:46.939Z,76.30
2018-08-30T18:09:15.343Z,76.50
2018-08-30T18:11:44.095Z,76.70
2018-08-30T18:14:12.738Z,76.90
2018-08-30T18:16:41.693Z,77.70
2018-08-30T18:19:10.126Z,77.30
2018-08-30T18:21:38.568Z,77.50
2018-08-30T18:24:08.149Z,77.30
2018-08-30T18:26:36.684Z,77.90
2018-08-30T18:29:07.044Z,78.10
2018-08-30T18:31:35.578Z,78.40
2018-08-30T18:34:04.105Z,78.50
2018-08-30T18:36:32.468Z,78.80
2018-08-30T18:39:00.958Z,78.90
2018-08-30T18:41:29.397Z,79.10
2018-08-30T18:43:57.856Z,79.30
2018-08-30T18:46:26.364Z,79.60
2018-08-30T18:48:54.749Z,79.80
2018-08-30T18:51:23.068Z,80.10
2018-08-30T18:53:51.530Z,80.20
2018-08-30T18:56:19.886Z,80.30
2018-08-30T18:58:51.008Z,80.60
2018-08-30T19:01:19.467Z,80.70
2018-08-30T19:03:48.196Z,81.30
2018-08-30T19:06:16.946Z,81.00
2018-08-30T19:08:45.300Z,81.50
2018-08-30T19:11:13.700Z,81.70
2018-08-30T19:13:42.095Z,81.60
2018-08-30T19:16:15.737Z,81.90
2018-08-30T19:18:50.301Z,81.90
2018-08-30T19:21:18.918Z,82.10
2018-08-30T19:23:47.509Z,82.40
2018-08-30T19:26:18.459Z,83.20
2018-08-30T19:28:47.077Z,83.30
2018-08-30T19:31:15.965Z,83.10
2018-08-30T19:33:45.696Z,83.30
2018-08-30T19:36:19.257Z,83.80
2018-08-30T19:38:47.853Z,83.30
2018-08-30T19:41:17.691Z,83.80
2018-08-30T19:43:46.811Z,83.30
2018-08-30T19:46:15.517Z,83.80
2018-08-30T19:48:44.095Z,84.20
2018-08-30T19:51:13.306Z,85.40
2018-08-30T19:53:41.982Z,85.00
2018-08-30T19:56:11.275Z,84.90
2018-08-30T19:58:39.898Z,86.10
2018-08-30T20:01:08.475Z,86.10
2018-08-30T20:03:37.176Z,86.10
2018-08-30T20:06:05.892Z,86.60
2018-08-30T20:08:34.541Z,86.80
2018-08-30T20:11:04.192Z,87.00
2018-08-30T20:13:32.928Z,87.10
2018-08-30T20:16:01.944Z,86.70
2018-08-30T20:18:32.661Z,88.10
2018-08-30T20:21:04.142Z,88.10
2018-08-30T20:23:43.025Z,88.40
2018-08-30T20:26:11.668Z,88.60
2018-08-30T20:28:40.060Z,88.80
2018-08-30T20:31:08.566Z,88.60
2018-08-30T20:33:37.033Z,89.20
2018-08-30T20:36:05.598Z,89.10
2018-08-30T20:38:34.313Z,89.60
2018-08-30T20:41:02.887Z,89.90
2018-08-30T20:43:31.302Z,89.90
2018-08-30T20:45:59.789Z,89.90
2018-08-30T20:48:28.300Z,90.20
2018-08-30T20:50:56.784Z,89.80
2018-08-30T20:53:30.932Z,89.80
2018-08-30T20:56:00.085Z,90.30
2018-08-30T20:58:28.551Z,90.10
2018-08-30T21:00:56.947Z,90.30
2018-08-30T21:03:25.449Z,90.30
2018-08-30T21:05:54.138Z,90.50
2018-08-30T21:08:22.509Z,90.60
2018-08-30T21:10:50.889Z,90.80
2018-08-30T21:13:19.220Z,90.90
2018-08-30T21:15:47.796Z,90.80
2018-08-30T21:18:16.399Z,90.70
2018-08-30T21:20:44.978Z,90.90
2018-08-30T21:23:13.512Z,91.00
2018-08-30T21:25:41.936Z,91.00
2018-08-30T21:28:10.337Z,91.10
2018-08-30T21:30:38.662Z,91.10
2018-08-30T21:33:07.077Z,91.00
2018-08-30T21:35:35.490Z,91.00
2018-08-30T21:38:03.892Z,90.90
2018-08-30T21:40:32.232Z,90.80
2018-08-30T21:43:00.766Z,91.00
2018-08-30T21:45:29.258Z,91.20
2018-08-30T21:47:57.718Z,91.40
2018-08-30T21:50:26.234Z,91.50
2018-08-30T21:52:54.769Z,91.30
2018-08-30T21:55:23.226Z,91.30
2018-08-30T21:57:51.588Z,91.40
2018-08-30T22:00:20.014Z,91.50
2018-08-30T22:02:48.387Z,91.00
2018-08-30T22:05:16.810Z,91.00
2018-08-30T22:07:45.579Z,91.00
2018-08-30T22:10:14.215Z,90.80
2018-08-30T22:12:42.660Z,91.00
2018-08-30T22:15:11.232Z,91.20
2018-08-30T22:17:39.877Z,91.30
2018-08-30T22:20:08.727Z,91.30
2018-08-30T22:22:37.091Z,91.30
2018-08-30T22:25:05.785Z,91.30
2018-08-30T22:27:35.582Z,91.40
2018-08-30T22:30:04.937Z,92.00
2018-08-30T22:32:34.024Z,91.50
2018-08-30T22:35:02.533Z,91.60
2018-08-30T22:37:31.124Z,91.40
2018-08-30T22:39:59.538Z,91.30
2018-08-30T22:42:27.918Z,91.50
2018-08-30T22:44:56.316Z,91.40
2018-08-30T22:47:27.284Z,91.30
2018-08-30T22:49:55.710Z,91.20
2018-08-30T22:52:24.219Z,91.50
2018-08-30T22:54:52.752Z,91.90
2018-08-30T22:57:21.181Z,91.90
2018-08-30T22:59:49.564Z,92.00
2018-08-30T23:02:17.931Z,91.90
2018-08-30T23:04:46.496Z,92.00
2018-08-30T23:07:15.068Z,91.80
2018-08-30T23:09:43.475Z,91.90
2018-08-30T23:12:11.867Z,92.00
2018-08-30T23:14:40.212Z,92.10
2018-08-30T23:17:08.525Z,92.30
2018-08-30T23:19:36.935Z,92.40
2018-08-30T23:22:05.306Z,92.50
2018-08-30T23:24:34.096Z,92.40
2018-08-30T23:27:06.286Z,92.40
2018-08-30T23:30:05.103Z,92.20
2018-08-30T23:32:36.436Z,92.40
2018-08-30T23:35:05.386Z,92.30
2018-08-30T23:37:35.672Z,92.60
2018-08-30T23:40:07.523Z,92.70
2018-08-30T23:42:37.364Z,92.40
2018-08-30T23:45:06.191Z,92.80
2018-08-30T23:47:34.532Z,92.80
2018-08-30T23:50:02.963Z,92.80
2018-08-30T23:52:31.437Z,92.80
2018-08-30T23:54:59.767Z,93.00
2018-08-30T23:57:28.115Z,92.90
